Time;durP1;ratioP1;P1;durP2;ratioP2;P2;SDS_P1;SDS_P2;PMS_P1;PMS_P2;Temp;Humidity;BMP_temperature;BMP_pressure;BME280_temperature;BME280_humidity;BME280_pressure;Samples;Min_cycle;Max_cycle;Signal;HPM_P1;HPM_P2
2021/01/30 00:26:32;;;;;;;;;;;;;;;;;;;;;
2021/01/30 00:35:50;;;;;;;0.00;0.00;;;;;;;;;;6084883;23;20174;-61
2021/01/30 00:41:15;;;;;;;0.00;0.00;;;;;;;;;;6083401;23;20165;-61
2021/01/30 01:02:13;;;;;;;0.00;0.00;;;;;;;;;;6046339;23;20563;-59
2021/01/30 01:19:41;;;;;;;3.40;1.07;;;;;;;;;;6054813;23;20164;-62
2021/01/30 01:34:35;;;;;;;0.00;0.00;;;;;;;;;;6054017;23;20165;-60
2021/01/30 02:16:01;;;;;;;0.03;0.03;;;;;;;;;;5998576;23;20552;-59
2021/01/30 02:30:50;;;;;;;0.30;0.20;;;;;;;;;;6114095;23;20212;-59
2021/01/30 02:34:00;;;;;;;0.07;0.07;;;;;;;;;;6110662;23;20201;-59
2021/01/30 02:43:14;;;;;;;0.10;0.10;;;;;;;;;;5994638;23;20899;-61
2021/01/30 02:46:16;;;;;;;0.10;0.10;;;;;;;;;;5987838;23;20172;-60
2021/01/30 03:27:15;;;;;;;;;;;;;;;;;;;;;
2021/01/30 03:32:38;;;;;;;0.10;0.10;;;;;;;;;;6054700;23;20172;-61
2021/01/30 03:41:25;;;;;;;0.87;0.87;;;;;;;;;;5994938;23;20204;-59
2021/01/30 04:02:01;;;;;;;0.10;0.10;;;;;;;;;;5953419;23;20681;-63
2021/01/30 04:05:25;;;;;;;0.00;0.00;;;;;;;;;;5971667;23;20179;-61
2021/01/30 04:08:24;;;;;;;0.33;0.33;;;;;;;;;;5981479;23;20164;-59
2021/01/30 04:23:02;;;;;;;0.20;0.20;;;;;;;;;;6085405;23;20160;-59
2021/01/30 04:34:43;;;;;;;0.30;0.20;;;;;;;;;;6040735;23;20169;-62
2021/01/30 04:43:16;;;;;;;0.07;0.07;;;;;;;;;;6054480;23;20212;-61
2021/01/30 04:52:22;;;;;;;0.10;0.10;;;;;;;;;;6114398;23;20248;-59
2021/01/30 05:16:53;;;;;;;0.20;0.20;;;;;;;;;;6115864;23;20152;-59
2021/01/30 05:34:59;;;;;;;0.00;0.00;;;;;;;;;;6070710;23;20216;-60
2021/01/30 05:47:16;;;;;;;0.00;0.00;;;;;;;;;;6112670;23;20172;-60
2021/01/30 05:55:41;;;;;;;;;;;;;;;;;;;;;
2021/01/30 14:50:22;;;;;;;0.03;0.03;;;;;;;;;;5050845;27;20655;-57
2021/01/30 14:52:49;;;;;;;0.10;0.10;;;;;;;;;;5037811;28;20207;-58
2021/01/30 14:55:15;;;;;;;0.03;0.03;;;;;;;;;;5039008;28;20401;-57
2021/01/30 14:57:42;;;;;;;0.63;0.63;;;;;;;;;;5017740;28;20224;-59
2021/01/30 15:00:12;;;;;;;0.00;0.00;;;;;;;;;;5012114;28;20184;-59
2021/01/30 15:02:38;;;;;;;0.00;0.00;;;;;;;;;;5016336;28;20514;-58
2021/01/30 15:05:05;;;;;;;0.00;0.00;;;;;;;;;;5012747;28;20601;-58
2021/01/30 15:07:32;;;;;;;0.67;0.30;;;;;;;;;;5002267;28;20188;-58
2021/01/30 15:09:59;;;;;;;0.00;0.00;;;;;;;;;;5007611;28;20208;-60
2021/01/30 15:12:25;;;;;;;3.27;0.10;;;;;;;;;;5021536;28;20275;-60
2021/01/30 15:14:52;;;;;;;0.10;0.10;;;;;;;;;;5017387;28;20919;-60
2021/01/30 15:17:19;;;;;;;0.97;0.67;;;;;;;;;;5009745;28;20209;-60
2021/01/30 15:19:47;;;;;;;9.53;1.13;;;;;;;;;;5020253;28;20861;-59
2021/01/30 15:22:13;;;;;;;4.97;1.07;;;;;;;;;;5013634;28;20246;-59
2021/01/30 15:24:40;;;;;;;5.67;2.93;;;;;;;;;;5014949;28;20196;-60
2021/01/30 15:27:07;;;;;;;0.00;0.00;;;;;;;;;;5023029;28;20397;-59
2021/01/30 15:29:33;;;;;;;0.00;0.00;;;;;;;;;;5020988;28;21062;-58
2021/01/30 15:31:59;;;;;;;3.00;2.00;;;;;;;;;;5013155;28;20249;-58
2021/01/30 15:34:26;;;;;;;0.83;0.83;;;;;;;;;;5015911;28;20214;-59
2021/01/30 15:36:53;;;;;;;0.23;0.23;;;;;;;;;;5008532;28;20219;-60
2021/01/30 15:39:19;;;;;;;3.03;1.27;;;;;;;;;;5019362;28;20192;-60
2021/01/30 15:41:46;;;;;;;0.00;0.00;;;;;;;;;;5019607;28;20187;-60
2021/01/30 15:44:12;;;;;;;1.63;1.17;;;;;;;;;;5021372;28;20192;-60
2021/01/30 15:46:39;;;;;;;0.37;0.37;;;;;;;;;;5019587;28;20547;-61
2021/01/30 15:49:05;;;;;;;0.00;0.00;;;;;;;;;;5019071;28;20232;-60
2021/01/30 15:51:32;;;;;;;0.00;0.00;;;;;;;;;;5014730;28;20189;-59
2021/01/30 15:53:58;;;;;;;0.00;0.00;;;;;;;;;;5017350;28;20189;-60
2021/01/30 15:56:25;;;;;;;0.00;0.00;;;;;;;;;;5021313;28;20185;-59
2021/01/30 15:58:52;;;;;;;1.97;1.80;;;;;;;;;;5009628;28;20686;-59
2021/01/30 16:01:20;;;;;;;0.70;0.43;;;;;;;;;;5003815;28;20632;-59
2021/01/30 16:03:46;;;;;;;2.37;0.80;;;;;;;;;;5008612;28;20259;-58
2021/01/30 16:06:13;;;;;;;0.80;0.47;;;;;;;;;;5004281;28;20201;-58
2021/01/30 16:08:41;;;;;;;0.00;0.00;;;;;;;;;;4996279;28;20205;-58
2021/01/30 16:11:07;;;;;;;0.67;0.47;;;;;;;;;;4994342;28;20786;-58
2021/01/30 16:13:34;;;;;;;5.40;1.43;;;;;;;;;;4995683;28;20185;-59
2021/01/30 16:16:00;;;;;;;2.30;0.77;;;;;;;;;;4989718;28;20240;-58
2021/01/30 16:18:27;;;;;;;0.87;0.23;;;;;;;;;;5001953;28;20196;-58
2021/01/30 16:20:55;;;;;;;4.77;1.30;;;;;;;;;;4998873;28;20185;-58
2021/01/30 16:23:23;;;;;;;0.30;0.30;;;;;;;;;;4997314;28;20236;-58
2021/01/30 16:25:50;;;;;;;1.13;0.57;;;;;;;;;;5001329;28;20690;-58
2021/01/30 16:28:16;;;;;;;1.00;0.80;;;;;;;;;;4997174;28;20785;-59
2021/01/30 16:30:45;;;;;;;0.27;0.20;;;;;;;;;;5006764;28;20208;-58
2021/01/30 16:33:12;;;;;;;0.57;0.57;;;;;;;;;;4995393;28;20630;-58
2021/01/30 16:35:38;;;;;;;6.77;0.83;;;;;;;;;;4996273;28;20182;-59
2021/01/30 16:38:07;;;;;;;1.83;1.20;;;;;;;;;;4994145;28;20194;-58
2021/01/30 16:40:35;;;;;;;10.87;0.80;;;;;;;;;;5000900;28;20198;-59
2021/01/30 16:43:03;;;;;;;0.73;0.73;;;;;;;;;;4998053;28;20293;-58
2021/01/30 16:45:30;;;;;;;0.97;0.77;;;;;;;;;;5007419;28;20557;-59
2021/01/30 16:47:56;;;;;;;0.43;0.43;;;;;;;;;;5001003;28;20187;-58
2021/01/30 16:50:23;;;;;;;0.00;0.00;;;;;;;;;;5004498;28;20610;-58
2021/01/30 16:52:52;;;;;;;0.23;0.10;;;;;;;;;;5007390;28;20192;-58
2021/01/30 16:55:20;;;;;;;0.10;0.10;;;;;;;;;;4994519;28;20276;-58
2021/01/30 16:57:46;;;;;;;0.10;0.10;;;;;;;;;;5001411;28;20827;-58
2021/01/30 17:00:17;;;;;;;2.67;0.53;;;;;;;;;;5002907;28;20202;-59
2021/01/30 17:02:43;;;;;;;0.10;0.10;;;;;;;;;;5002560;28;20193;-59
2021/01/30 17:05:11;;;;;;;1.80;0.10;;;;;;;;;;4999969;28;20200;-60
2021/01/30 17:07:37;;;;;;;0.10;0.10;;;;;;;;;;4996033;28;20207;-59
2021/01/30 17:10:05;;;;;;;25.00;0.70;;;;;;;;;;4996293;28;20234;-59
2021/01/30 17:12:31;;;;;;;0.10;0.10;;;;;;;;;;5005958;28;20220;-59
2021/01/30 17:14:58;;;;;;;1.90;0.67;;;;;;;;;;5009908;28;20291;-62
2021/01/30 17:17:24;;;;;;;0.67;0.67;;;;;;;;;;5011758;28;20712;-59
2021/01/30 17:19:51;;;;;;;0.37;0.20;;;;;;;;;;5004757;28;20215;-60
2021/01/30 17:22:17;;;;;;;0.00;0.00;;;;;;;;;;5004160;28;20280;-61
2021/01/30 17:24:45;;;;;;;0.13;0.13;;;;;;;;;;5015860;28;20184;-64
2021/01/30 17:27:11;;;;;;;2.00;1.27;;;;;;;;;;5001748;28;20199;-58
2021/01/30 17:29:38;;;;;;;0.10;0.10;;;;;;;;;;5001661;28;20262;-59
2021/01/30 17:32:04;;;;;;;6.30;0.53;;;;;;;;;;5003522;28;20179;-59
2021/01/30 17:34:31;;;;;;;2.83;0.60;;;;;;;;;;4994750;28;20768;-59
2021/01/30 17:36:58;;;;;;;2.37;0.47;;;;;;;;;;4999630;28;20251;-59
2021/01/30 17:39:25;;;;;;;0.30;0.20;;;;;;;;;;4994313;28;20196;-59
2021/01/30 17:41:52;;;;;;;0.00;0.00;;;;;;;;;;5002628;28;20957;-59
2021/01/30 17:44:19;;;;;;;0.00;0.00;;;;;;;;;;4992700;28;20193;-59
2021/01/30 17:46:57;;;;;;;2.63;0.93;;;;;;;;;;4995797;28;20188;-60
2021/01/30 17:49:25;;;;;;;0.23;0.23;;;;;;;;;;4962112;28;20285;-59
2021/01/30 17:51:51;;;;;;;0.10;0.10;;;;;;;;;;4995380;28;20191;-59
2021/01/30 17:54:18;;;;;;;3.20;0.53;;;;;;;;;;4996082;28;20186;-59
2021/01/30 17:56:44;;;;;;;0.20;0.20;;;;;;;;;;4993486;28;20190;-61
2021/01/30 17:59:11;;;;;;;0.10;0.10;;;;;;;;;;5005872;28;20195;-60
2021/01/30 18:01:38;;;;;;;1.13;0.67;;;;;;;;;;5000529;28;20192;-57
2021/01/30 18:04:05;;;;;;;0.00;0.00;;;;;;;;;;5006135;28;20183;-58
2021/01/30 18:06:32;;;;;;;0.60;0.60;;;;;;;;;;5000634;28;20190;-59
2021/01/30 18:08:59;;;;;;;0.60;0.17;;;;;;;;;;4991851;28;20213;-58
2021/01/30 18:11:26;;;;;;;0.10;0.10;;;;;;;;;;5000533;28;20611;-59
2021/01/30 18:13:54;;;;;;;0.10;0.10;;;;;;;;;;4995728;28;20209;-58
2021/01/30 18:16:20;;;;;;;0.63;0.20;;;;;;;;;;5002708;28;20178;-63
2021/01/30 18:18:47;;;;;;;2.00;0.57;;;;;;;;;;4990351;28;20199;-63
2021/01/30 18:21:13;;;;;;;2.90;2.77;;;;;;;;;;4992197;28;20187;-62
2021/01/30 18:23:40;;;;;;;0.00;0.00;;;;;;;;;;4990114;28;20268;-62
2021/01/30 18:26:08;;;;;;;0.10;0.10;;;;;;;;;;4996959;28;20626;-62
2021/01/30 18:28:35;;;;;;;0.00;0.00;;;;;;;;;;4988946;28;20202;-62
2021/01/30 18:31:01;;;;;;;0.00;0.00;;;;;;;;;;4991850;28;20179;-62
2021/01/30 18:33:30;;;;;;;0.20;0.20;;;;;;;;;;4988910;28;20208;-62
2021/01/30 18:35:57;;;;;;;1.07;0.43;;;;;;;;;;4986004;28;20186;-62
2021/01/30 18:38:23;;;;;;;0.10;0.10;;;;;;;;;;4997113;28;20214;-63
2021/01/30 18:40:50;;;;;;;0.10;0.10;;;;;;;;;;4992840;28;20205;-62
2021/01/30 18:43:16;;;;;;;0.00;0.00;;;;;;;;;;4995901;28;20657;-62
2021/01/30 18:45:43;;;;;;;0.00;0.00;;;;;;;;;;4984756;28;20257;-62
2021/01/30 18:48:09;;;;;;;0.63;0.63;;;;;;;;;;4984787;28;20229;-62
2021/01/30 18:50:36;;;;;;;0.10;0.10;;;;;;;;;;4985093;28;20195;-62
2021/01/30 18:53:03;;;;;;;0.00;0.00;;;;;;;;;;4999947;28;20205;-63
2021/01/30 18:55:30;;;;;;;0.00;0.00;;;;;;;;;;4996183;28;20174;-63
2021/01/30 18:57:57;;;;;;;0.10;0.10;;;;;;;;;;4990058;28;20266;-63
2021/01/30 19:00:25;;;;;;;0.30;0.30;;;;;;;;;;4994724;28;20248;-63
2021/01/30 19:02:58;;;;;;;0.10;0.10;;;;;;;;;;4993567;28;20195;-63
2021/01/30 19:05:25;;;;;;;0.10;0.10;;;;;;;;;;4987954;28;20195;-62
2021/01/30 19:07:52;;;;;;;0.77;0.37;;;;;;;;;;5003902;28;20354;-63
2021/01/30 19:10:18;;;;;;;0.07;0.07;;;;;;;;;;4998472;28;20194;-63
2021/01/30 19:12:45;;;;;;;0.20;0.20;;;;;;;;;;4995629;28;20204;-62
2021/01/30 19:15:18;;;;;;;0.07;0.07;;;;;;;;;;4998301;28;20626;-63
2021/01/30 19:17:48;;;;;;;0.97;0.40;;;;;;;;;;4990305;28;20186;-63
2021/01/30 19:20:21;;;;;;;0.10;0.10;;;;;;;;;;4990875;28;20207;-63
2021/01/30 19:22:50;;;;;;;0.00;0.00;;;;;;;;;;4998558;28;20201;-63
2021/01/30 19:25:17;;;;;;;0.67;0.63;;;;;;;;;;4998895;28;20902;-63
2021/01/30 19:27:43;;;;;;;0.20;0.20;;;;;;;;;;4996038;28;20401;-63
2021/01/30 19:30:11;;;;;;;0.00;0.00;;;;;;;;;;4992387;28;20206;-63
2021/01/30 19:32:41;;;;;;;1.40;0.70;;;;;;;;;;4997588;28;20266;-62
2021/01/30 19:35:08;;;;;;;0.60;0.60;;;;;;;;;;4987363;28;20175;-62
2021/01/30 19:37:35;;;;;;;1.70;0.87;;;;;;;;;;5002913;28;20208;-62
2021/01/30 19:40:02;;;;;;;0.00;0.00;;;;;;;;;;4993433;28;20247;-63
2021/01/30 19:42:28;;;;;;;0.00;0.00;;;;;;;;;;5000381;28;20267;-62
2021/01/30 19:44:57;;;;;;;0.93;0.40;;;;;;;;;;4991410;28;20190;-62
2021/01/30 19:47:26;;;;;;;0.20;0.20;;;;;;;;;;5009311;28;20182;-62
2021/01/30 19:49:53;;;;;;;0.10;0.10;;;;;;;;;;4991001;28;20227;-62
2021/01/30 19:52:19;;;;;;;0.00;0.00;;;;;;;;;;4993393;28;20189;-62
2021/01/30 19:54:46;;;;;;;0.00;0.00;;;;;;;;;;5008188;28;20621;-63
2021/01/30 19:57:12;;;;;;;0.00;0.00;;;;;;;;;;4995593;28;20237;-63
2021/01/30 19:59:39;;;;;;;1.90;1.80;;;;;;;;;;4997223;28;20208;-62
2021/01/30 20:02:06;;;;;;;1.07;0.97;;;;;;;;;;4999661;28;20236;-62
2021/01/30 20:04:32;;;;;;;0.07;0.07;;;;;;;;;;5000969;28;20195;-62
2021/01/30 20:06:59;;;;;;;0.00;0.00;;;;;;;;;;4997601;28;20181;-62
2021/01/30 20:09:25;;;;;;;1.60;0.93;;;;;;;;;;4999599;28;20740;-62
2021/01/30 20:11:52;;;;;;;0.00;0.00;;;;;;;;;;5000301;28;20183;-62
2021/01/30 20:14:18;;;;;;;1.17;0.30;;;;;;;;;;4998764;28;20627;-62
2021/01/30 20:16:45;;;;;;;0.00;0.00;;;;;;;;;;4999038;28;20184;-63
2021/01/30 20:19:11;;;;;;;0.00;0.00;;;;;;;;;;5007071;28;20658;-63
2021/01/30 20:21:40;;;;;;;0.00;0.00;;;;;;;;;;4999460;28;20198;-63
2021/01/30 20:24:07;;;;;;;7.30;0.67;;;;;;;;;;4990914;28;20345;-64
2021/01/30 20:26:33;;;;;;;1.33;1.33;;;;;;;;;;4999670;28;20679;-63
2021/01/30 20:29:00;;;;;;;0.53;0.23;;;;;;;;;;5004779;28;20212;-64
2021/01/30 20:31:27;;;;;;;0.77;0.40;;;;;;;;;;4999163;28;20189;-64
2021/01/30 20:33:53;;;;;;;0.10;0.10;;;;;;;;;;5000164;28;20180;-63
2021/01/30 20:36:20;;;;;;;0.00;0.00;;;;;;;;;;4993628;28;20895;-63
2021/01/30 20:38:47;;;;;;;0.30;0.30;;;;;;;;;;4998324;28;20196;-64
2021/01/30 20:41:13;;;;;;;0.77;0.77;;;;;;;;;;4997166;28;20188;-63
2021/01/30 20:43:40;;;;;;;0.00;0.00;;;;;;;;;;4991225;28;20216;-64
2021/01/30 20:46:07;;;;;;;0.30;0.10;;;;;;;;;;4997321;28;20387;-64
2021/01/30 20:48:35;;;;;;;7.57;0.53;;;;;;;;;;4997708;28;20232;-64
2021/01/30 20:51:01;;;;;;;4.63;1.30;;;;;;;;;;4997781;28;20192;-64
2021/01/30 20:53:28;;;;;;;1.53;0.57;;;;;;;;;;5004040;28;20188;-63
2021/01/30 20:55:55;;;;;;;0.00;0.00;;;;;;;;;;4999249;28;20579;-64
2021/01/30 20:58:22;;;;;;;0.10;0.10;;;;;;;;;;4997436;28;20208;-65
2021/01/30 21:00:48;;;;;;;0.00;0.00;;;;;;;;;;5000970;28;20872;-65
2021/01/30 21:03:15;;;;;;;0.20;0.20;;;;;;;;;;4995034;28;20189;-65
2021/01/30 21:05:42;;;;;;;0.20;0.20;;;;;;;;;;4995710;28;20850;-65
2021/01/30 21:08:08;;;;;;;0.77;0.40;;;;;;;;;;5000237;28;20199;-64
2021/01/30 21:10:35;;;;;;;2.90;2.80;;;;;;;;;;5000471;28;20246;-64
2021/01/30 21:13:02;;;;;;;2.00;2.00;;;;;;;;;;4996273;28;20203;-64
2021/01/30 21:15:28;;;;;;;0.10;0.10;;;;;;;;;;4997422;28;20212;-65
2021/01/30 21:17:55;;;;;;;3.70;1.17;;;;;;;;;;4996988;28;20177;-64
2021/01/30 21:20:22;;;;;;;0.10;0.10;;;;;;;;;;5000471;28;20668;-64
2021/01/30 21:22:51;;;;;;;0.47;0.47;;;;;;;;;;4991248;28;20189;-64
2021/01/30 21:25:18;;;;;;;0.67;0.30;;;;;;;;;;5000142;28;20240;-64
2021/01/30 21:27:45;;;;;;;0.00;0.00;;;;;;;;;;5000069;28;20195;-64
2021/01/30 21:30:13;;;;;;;1.80;1.30;;;;;;;;;;4998608;28;20303;-64
2021/01/30 21:32:39;;;;;;;3.60;3.50;;;;;;;;;;4997591;28;20262;-63
2021/01/30 21:35:07;;;;;;;3.30;0.67;;;;;;;;;;4996478;28;20212;-63
2021/01/30 21:37:34;;;;;;;0.10;0.10;;;;;;;;;;5002030;28;20654;-64
2021/01/30 21:40:01;;;;;;;0.30;0.30;;;;;;;;;;4993978;28;20555;-64
2021/01/30 21:42:27;;;;;;;0.20;0.20;;;;;;;;;;4997616;28;20382;-64
2021/01/30 21:44:54;;;;;;;3.17;3.00;;;;;;;;;;4987881;28;20283;-63
2021/01/30 21:47:23;;;;;;;1.93;0.57;;;;;;;;;;4999663;28;20192;-64
2021/01/30 21:49:50;;;;;;;1.27;1.27;;;;;;;;;;4997268;28;20228;-64
2021/01/30 21:52:16;;;;;;;0.73;0.73;;;;;;;;;;4993023;28;20188;-65
2021/01/30 21:54:43;;;;;;;0.10;0.10;;;;;;;;;;4992303;28;20176;-64
2021/01/30 21:57:09;;;;;;;0.00;0.00;;;;;;;;;;4995480;28;20298;-64
2021/01/30 21:59:36;;;;;;;1.03;0.47;;;;;;;;;;4997454;28;20223;-64
2021/01/30 22:02:02;;;;;;;5.23;5.00;;;;;;;;;;4999459;28;20185;-65
2021/01/30 22:04:29;;;;;;;0.00;0.00;;;;;;;;;;4998469;28;20201;-64
2021/01/30 22:06:55;;;;;;;7.23;7.03;;;;;;;;;;4999582;28;20185;-64
2021/01/30 22:09:22;;;;;;;0.87;0.20;;;;;;;;;;4996510;28;20220;-65
2021/01/30 22:11:48;;;;;;;1.40;0.53;;;;;;;;;;4993099;28;20250;-64
2021/01/30 22:14:15;;;;;;;1.13;0.50;;;;;;;;;;5001953;28;20181;-64
2021/01/30 22:16:41;;;;;;;1.30;0.30;;;;;;;;;;4999718;28;20250;-64
2021/01/30 22:19:08;;;;;;;0.20;0.20;;;;;;;;;;5001513;28;20188;-64
2021/01/30 22:21:37;;;;;;;8.93;1.40;;;;;;;;;;4998135;28;20180;-65
2021/01/30 22:24:04;;;;;;;4.57;0.93;;;;;;;;;;4994093;28;20226;-64
2021/01/30 22:26:32;;;;;;;1.10;0.67;;;;;;;;;;4993051;28;20246;-64
2021/01/30 22:28:58;;;;;;;0.00;0.00;;;;;;;;;;5003945;28;20223;-64
2021/01/30 22:31:25;;;;;;;0.00;0.00;;;;;;;;;;4989276;28;20273;-64
2021/01/30 22:33:52;;;;;;;2.13;0.70;;;;;;;;;;4999093;28;20673;-65
2021/01/30 22:36:18;;;;;;;0.23;0.10;;;;;;;;;;5000006;28;20192;-64
2021/01/30 22:38:45;;;;;;;0.37;0.37;;;;;;;;;;4993681;28;20236;-65
2021/01/30 22:41:11;;;;;;;2.03;1.93;;;;;;;;;;4990239;28;20188;-65
2021/01/30 22:43:39;;;;;;;0.00;0.00;;;;;;;;;;4993019;28;20176;-65
2021/01/30 22:46:07;;;;;;;0.27;0.27;;;;;;;;;;4986079;28;20734;-65
2021/01/30 22:48:33;;;;;;;0.00;0.00;;;;;;;;;;4995040;28;20232;-66
2021/01/30 22:51:00;;;;;;;1.00;1.00;;;;;;;;;;4996164;28;20183;-66
2021/01/30 22:53:26;;;;;;;1.40;1.30;;;;;;;;;;4991745;28;20829;-63
